sensor_id;sensor_type;location;lat;lon;timestamp;P1;durP1;ratioP1;P2;durP2;ratioP2
27357;SDS011;14831;50.474;7.616;2023-09-19T00:00:58;1.0;;;0.8;;
27357;SDS011;14831;50.474;7.616;2023-09-19T00:05:58;1.0;;;0.8;;
27357;SDS011;14831;50.474;7.616;2023-09-19T00:10:58;1.0;;;0.8;;
27357;SDS011;14831;50.474;7.616;2023-09-19T00:15:58;1.0;;;0.8;;
27357;SDS011;14831;50.474;7.616;2023-09-19T00:20:58;1.0;;;0.8;;
27357;SDS011;14831;50.474;7.616;2023-09-19T00:25:58;1.0;;;0.8;;
27357;SDS011;14831;50.474;7.616;2023-09-19T00:30:57;0.9;;;0.7;;
27357;SDS011;14831;50.474;7.616;2023-09-19T00:35:58;0.9;;;0.7;;
27357;SDS011;14831;50.474;7.616;2023-09-19T00:40:57;0.9;;;0.7;;
27357;SDS011;14831;50.474;7.616;2023-09-19T00:45:57;0.9;;;0.7;;
27357;SDS011;14831;50.474;7.616;2023-09-19T00:51:02;0.9;;;0.7;;
27357;SDS011;14831;50.474;7.616;2023-09-19T00:55:58;0.9;;;0.7;;
27357;SDS011;14831;50.474;7.616;2023-09-19T01:00:58;0.8;;;0.7;;
27357;SDS011;14831;50.474;7.616;2023-09-19T01:05:59;0.8;;;0.7;;
27357;SDS011;14831;50.474;7.616;2023-09-19T01:11:03;0.8;;;0.7;;
27357;SDS011;14831;50.474;7.616;2023-09-19T01:16:04;0.8;;;0.7;;
27357;SDS011;14831;50.474;7.616;2023-09-19T01:21:05;0.8;;;0.7;;
27357;SDS011;14831;50.474;7.616;2023-09-19T01:26:05;0.8;;;0.7;;
27357;SDS011;14831;50.474;7.616;2023-09-19T01:30:58;0.9;;;0.6;;
27357;SDS011;14831;50.474;7.616;2023-09-19T01:35:57;0.9;;;0.6;;
27357;SDS011;14831;50.474;7.616;2023-09-19T01:41:03;0.9;;;0.6;;
27357;SDS011;14831;50.474;7.616;2023-09-19T01:46:05;0.9;;;0.6;;
27357;SDS011;14831;50.474;7.616;2023-09-19T01:51:00;0.9;;;0.6;;
27357;SDS011;14831;50.474;7.616;2023-09-19T01:55:58;0.9;;;0.6;;
27357;SDS011;14831;50.474;7.616;2023-09-19T02:00:58;0.6;;;0.6;;
27357;SDS011;14831;50.474;7.616;2023-09-19T02:05:57;0.6;;;0.6;;
27357;SDS011;14831;50.474;7.616;2023-09-19T02:10:58;0.6;;;0.6;;
27357;SDS011;14831;50.474;7.616;2023-09-19T02:15:58;0.6;;;0.6;;
27357;SDS011;14831;50.474;7.616;2023-09-19T02:20:58;0.6;;;0.6;;
27357;SDS011;14831;50.474;7.616;2023-09-19T02:25:58;0.6;;;0.6;;
27357;SDS011;14831;50.474;7.616;2023-09-19T02:30:58;0.7;;;0.7;;
27357;SDS011;14831;50.474;7.616;2023-09-19T02:35:58;0.7;;;0.7;;
27357;SDS011;14831;50.474;7.616;2023-09-19T02:40:58;0.7;;;0.7;;
27357;SDS011;14831;50.474;7.616;2023-09-19T02:45:58;0.7;;;0.7;;
27357;SDS011;14831;50.474;7.616;2023-09-19T02:50:58;0.7;;;0.7;;
27357;SDS011;14831;50.474;7.616;2023-09-19T02:55:58;0.7;;;0.7;;
27357;SDS011;14831;50.474;7.616;2023-09-19T03:00:58;0.7;;;0.7;;
27357;SDS011;14831;50.474;7.616;2023-09-19T03:05:58;0.7;;;0.7;;
27357;SDS011;14831;50.474;7.616;2023-09-19T03:10:57;0.7;;;0.7;;
27357;SDS011;14831;50.474;7.616;2023-09-19T03:15:58;0.7;;;0.7;;
27357;SDS011;14831;50.474;7.616;2023-09-19T03:20:58;0.7;;;0.7;;
27357;SDS011;14831;50.474;7.616;2023-09-19T03:25:58;0.7;;;0.7;;
27357;SDS011;14831;50.474;7.616;2023-09-19T03:30:59;1.0;;;0.7;;
27357;SDS011;14831;50.474;7.616;2023-09-19T03:35:58;1.0;;;0.7;;
27357;SDS011;14831;50.474;7.616;2023-09-19T03:40:58;1.0;;;0.7;;
27357;SDS011;14831;50.474;7.616;2023-09-19T03:46:01;1.0;;;0.7;;
27357;SDS011;14831;50.474;7.616;2023-09-19T03:50:57;1.0;;;0.7;;
27357;SDS011;14831;50.474;7.616;2023-09-19T03:55:57;1.0;;;0.7;;
27357;SDS011;14831;50.474;7.616;2023-09-19T04:00:58;1.0;;;0.7;;
27357;SDS011;14831;50.474;7.616;2023-09-19T04:05:57;1.1;;;0.8;;
27357;SDS011;14831;50.474;7.616;2023-09-19T04:10:58;1.1;;;0.8;;
27357;SDS011;14831;50.474;7.616;2023-09-19T04:15:58;1.1;;;0.8;;
27357;SDS011;14831;50.474;7.616;2023-09-19T04:20:58;1.1;;;0.8;;
27357;SDS011;14831;50.474;7.616;2023-09-19T04:25:58;1.1;;;0.8;;
27357;SDS011;14831;50.474;7.616;2023-09-19T04:30:58;1.1;;;0.8;;
27357;SDS011;14831;50.474;7.616;2023-09-19T04:35:58;0.6;;;0.6;;
27357;SDS011;14831;50.474;7.616;2023-09-19T04:40:58;0.6;;;0.6;;
27357;SDS011;14831;50.474;7.616;2023-09-19T04:45:58;0.6;;;0.6;;
27357;SDS011;14831;50.474;7.616;2023-09-19T04:50:58;0.6;;;0.6;;
27357;SDS011;14831;50.474;7.616;2023-09-19T04:55:57;0.6;;;0.6;;
27357;SDS011;14831;50.474;7.616;2023-09-19T05:00:58;0.6;;;0.6;;
27357;SDS011;14831;50.474;7.616;2023-09-19T05:05:57;1.0;;;0.7;;
27357;SDS011;14831;50.474;7.616;2023-09-19T05:10:57;1.0;;;0.7;;
27357;SDS011;14831;50.474;7.616;2023-09-19T05:15:59;1.0;;;0.7;;
27357;SDS011;14831;50.474;7.616;2023-09-19T05:20:58;1.0;;;0.7;;
27357;SDS011;14831;50.474;7.616;2023-09-19T05:25:57;1.0;;;0.7;;
27357;SDS011;14831;50.474;7.616;2023-09-19T05:31:00;1.0;;;0.7;;
27357;SDS011;14831;50.474;7.616;2023-09-19T05:35:58;1.5;;;0.7;;
27357;SDS011;14831;50.474;7.616;2023-09-19T05:40:57;1.5;;;0.7;;
27357;SDS011;14831;50.474;7.616;2023-09-19T05:45:59;1.5;;;0.7;;
27357;SDS011;14831;50.474;7.616;2023-09-19T05:50:58;1.5;;;0.7;;
27357;SDS011;14831;50.474;7.616;2023-09-19T05:55:57;1.5;;;0.7;;
27357;SDS011;14831;50.474;7.616;2023-09-19T06:00:57;1.5;;;0.7;;
27357;SDS011;14831;50.474;7.616;2023-09-19T06:05:57;5.7;;;1.4;;
27357;SDS011;14831;50.474;7.616;2023-09-19T06:10:57;5.7;;;1.4;;
27357;SDS011;14831;50.474;7.616;2023-09-19T06:15:58;5.7;;;1.4;;
27357;SDS011;14831;50.474;7.616;2023-09-19T06:20:57;5.7;;;1.4;;
27357;SDS011;14831;50.474;7.616;2023-09-19T06:25:57;5.7;;;1.4;;
27357;SDS011;14831;50.474;7.616;2023-09-19T06:30:57;5.7;;;1.4;;
27357;SDS011;14831;50.474;7.616;2023-09-19T06:35:58;2.2;;;1.4;;
27357;SDS011;14831;50.474;7.616;2023-09-19T06:40:58;2.2;;;1.4;;
27357;SDS011;14831;50.474;7.616;2023-09-19T06:45:58;2.2;;;1.4;;
27357;SDS011;14831;50.474;7.616;2023-09-19T06:50:58;2.2;;;1.4;;
27357;SDS011;14831;50.474;7.616;2023-09-19T06:55:58;2.2;;;1.4;;
27357;SDS011;14831;50.474;7.616;2023-09-19T07:00:57;2.2;;;1.4;;
27357;SDS011;14831;50.474;7.616;2023-09-19T07:05:57;2.8;;;1.3;;
27357;SDS011;14831;50.474;7.616;2023-09-19T07:10:58;2.8;;;1.3;;
27357;SDS011;14831;50.474;7.616;2023-09-19T07:15:58;2.8;;;1.3;;
27357;SDS011;14831;50.474;7.616;2023-09-19T07:20:58;2.8;;;1.3;;
27357;SDS011;14831;50.474;7.616;2023-09-19T07:25:57;2.8;;;1.3;;
27357;SDS011;14831;50.474;7.616;2023-09-19T07:31:01;2.8;;;1.3;;
27357;SDS011;14831;50.474;7.616;2023-09-19T07:35:58;2.6;;;1.0;;
27357;SDS011;14831;50.474;7.616;2023-09-19T07:41:00;2.6;;;1.0;;
27357;SDS011;14831;50.474;7.616;2023-09-19T07:45:58;2.6;;;1.0;;
27357;SDS011;14831;50.474;7.616;2023-09-19T07:51:01;2.6;;;1.0;;
27357;SDS011;14831;50.474;7.616;2023-09-19T07:56:02;2.6;;;1.0;;
27357;SDS011;14831;50.474;7.616;2023-09-19T08:01:02;2.6;;;1.0;;
27357;SDS011;14831;50.474;7.616;2023-09-19T08:05:58;2.2;;;1.3;;
27357;SDS011;14831;50.474;7.616;2023-09-19T08:10:57;2.2;;;1.3;;
27357;SDS011;14831;50.474;7.616;2023-09-19T08:15:57;2.2;;;1.3;;
27357;SDS011;14831;50.474;7.616;2023-09-19T08:20:57;2.2;;;1.3;;
27357;SDS011;14831;50.474;7.616;2023-09-19T08:25:58;2.2;;;1.3;;
27357;SDS011;14831;50.474;7.616;2023-09-19T08:31:01;2.2;;;1.3;;
27357;SDS011;14831;50.474;7.616;2023-09-19T08:35:58;2.6;;;1.0;;
27357;SDS011;14831;50.474;7.616;2023-09-19T08:40:58;2.6;;;1.0;;
27357;SDS011;14831;50.474;7.616;2023-09-19T08:46:04;2.6;;;1.0;;
27357;SDS011;14831;50.474;7.616;2023-09-19T08:51:02;2.6;;;1.0;;
27357;SDS011;14831;50.474;7.616;2023-09-19T08:55:59;2.6;;;1.0;;
27357;SDS011;14831;50.474;7.616;2023-09-19T09:00:58;2.6;;;1.0;;
27357;SDS011;14831;50.474;7.616;2023-09-19T09:05:58;2.4;;;1.1;;
27357;SDS011;14831;50.474;7.616;2023-09-19T09:10:58;2.4;;;1.1;;
27357;SDS011;14831;50.474;7.616;2023-09-19T09:15:58;2.4;;;1.1;;
27357;SDS011;14831;50.474;7.616;2023-09-19T09:20:58;2.4;;;1.1;;
27357;SDS011;14831;50.474;7.616;2023-09-19T09:25:59;2.4;;;1.1;;
27357;SDS011;14831;50.474;7.616;2023-09-19T09:30:58;2.4;;;1.1;;
27357;SDS011;14831;50.474;7.616;2023-09-19T09:35:59;3.7;;;1.7;;
27357;SDS011;14831;50.474;7.616;2023-09-19T09:40:59;3.7;;;1.7;;
27357;SDS011;14831;50.474;7.616;2023-09-19T09:46:08;3.7;;;1.7;;
27357;SDS011;14831;50.474;7.616;2023-09-19T09:50:58;3.7;;;1.7;;
27357;SDS011;14831;50.474;7.616;2023-09-19T09:55:59;3.7;;;1.7;;
27357;SDS011;14831;50.474;7.616;2023-09-19T10:00:58;3.7;;;1.7;;
27357;SDS011;14831;50.474;7.616;2023-09-19T10:05:58;2.2;;;1.4;;
27357;SDS011;14831;50.474;7.616;2023-09-19T10:10:58;2.2;;;1.4;;
27357;SDS011;14831;50.474;7.616;2023-09-19T10:15:58;2.2;;;1.4;;
27357;SDS011;14831;50.474;7.616;2023-09-19T10:20:59;2.2;;;1.4;;
27357;SDS011;14831;50.474;7.616;2023-09-19T10:25:58;2.2;;;1.4;;
27357;SDS011;14831;50.474;7.616;2023-09-19T10:31:00;2.2;;;1.4;;
27357;SDS011;14831;50.474;7.616;2023-09-19T10:35:59;3.6;;;1.5;;
27357;SDS011;14831;50.474;7.616;2023-09-19T10:40:58;3.6;;;1.5;;
27357;SDS011;14831;50.474;7.616;2023-09-19T10:46:01;3.6;;;1.5;;
27357;SDS011;14831;50.474;7.616;2023-09-19T10:51:02;3.6;;;1.5;;
27357;SDS011;14831;50.474;7.616;2023-09-19T10:55:59;3.6;;;1.5;;
27357;SDS011;14831;50.474;7.616;2023-09-19T11:00:58;3.6;;;1.5;;
27357;SDS011;14831;50.474;7.616;2023-09-19T11:06:07;2.6;;;1.5;;
27357;SDS011;14831;50.474;7.616;2023-09-19T11:10:58;2.6;;;1.5;;
27357;SDS011;14831;50.474;7.616;2023-09-19T11:16:05;2.6;;;1.5;;
27357;SDS011;14831;50.474;7.616;2023-09-19T11:21:40;2.6;;;1.5;;
27357;SDS011;14831;50.474;7.616;2023-09-19T11:25:57;2.6;;;1.5;;
27357;SDS011;14831;50.474;7.616;2023-09-19T11:30:57;2.6;;;1.5;;
27357;SDS011;14831;50.474;7.616;2023-09-19T11:36:01;3.7;;;1.7;;
27357;SDS011;14831;50.474;7.616;2023-09-19T11:41:37;3.7;;;1.7;;
27357;SDS011;14831;50.474;7.616;2023-09-19T11:46:03;3.7;;;1.7;;
27357;SDS011;14831;50.474;7.616;2023-09-19T11:50:58;3.7;;;1.7;;
27357;SDS011;14831;50.474;7.616;2023-09-19T11:55:58;3.7;;;1.7;;
27357;SDS011;14831;50.474;7.616;2023-09-19T12:01:00;3.7;;;1.7;;
27357;SDS011;14831;50.474;7.616;2023-09-19T12:05:58;6.9;;;1.8;;
27357;SDS011;14831;50.474;7.616;2023-09-19T12:10:58;6.9;;;1.8;;
27357;SDS011;14831;50.474;7.616;2023-09-19T12:15:58;6.9;;;1.8;;
27357;SDS011;14831;50.474;7.616;2023-09-19T12:20:57;6.9;;;1.8;;
27357;SDS011;14831;50.474;7.616;2023-09-19T12:25:58;6.9;;;1.8;;
27357;SDS011;14831;50.474;7.616;2023-09-19T12:31:06;6.9;;;1.8;;
27357;SDS011;14831;50.474;7.616;2023-09-19T12:35:58;9.0;;;1.9;;
27357;SDS011;14831;50.474;7.616;2023-09-19T12:40:58;9.0;;;1.9;;
27357;SDS011;14831;50.474;7.616;2023-09-19T12:45:58;9.0;;;1.9;;
27357;SDS011;14831;50.474;7.616;2023-09-19T12:51:00;9.0;;;1.9;;
27357;SDS011;14831;50.474;7.616;2023-09-19T12:55:58;9.0;;;1.9;;
27357;SDS011;14831;50.474;7.616;2023-09-19T13:00:57;9.0;;;1.9;;
27357;SDS011;14831;50.474;7.616;2023-09-19T13:05:58;6.2;;;1.6;;
27357;SDS011;14831;50.474;7.616;2023-09-19T13:11:07;6.2;;;1.6;;
27357;SDS011;14831;50.474;7.616;2023-09-19T13:15:57;6.2;;;1.6;;
27357;SDS011;14831;50.474;7.616;2023-09-19T13:21:06;6.2;;;1.6;;
27357;SDS011;14831;50.474;7.616;2023-09-19T13:25:57;6.2;;;1.6;;
27357;SDS011;14831;50.474;7.616;2023-09-19T13:30:57;6.2;;;1.6;;
27357;SDS011;14831;50.474;7.616;2023-09-19T13:35:58;3.9;;;1.5;;
27357;SDS011;14831;50.474;7.616;2023-09-19T13:40:58;3.9;;;1.5;;
27357;SDS011;14831;50.474;7.616;2023-09-19T13:45:58;3.9;;;1.5;;
27357;SDS011;14831;50.474;7.616;2023-09-19T13:50:57;3.9;;;1.5;;
27357;SDS011;14831;50.474;7.616;2023-09-19T13:55:57;3.9;;;1.5;;
27357;SDS011;14831;50.474;7.616;2023-09-19T14:00:57;3.9;;;1.5;;
27357;SDS011;14831;50.474;7.616;2023-09-19T14:05:57;3.3;;;1.4;;
27357;SDS011;14831;50.474;7.616;2023-09-19T14:10:57;3.3;;;1.4;;
27357;SDS011;14831;50.474;7.616;2023-09-19T14:16:03;3.3;;;1.4;;
27357;SDS011;14831;50.474;7.616;2023-09-19T14:20:58;3.3;;;1.4;;
27357;SDS011;14831;50.474;7.616;2023-09-19T14:26:00;3.3;;;1.4;;
27357;SDS011;14831;50.474;7.616;2023-09-19T14:30:57;3.3;;;1.4;;
27357;SDS011;14831;50.474;7.616;2023-09-19T14:35:58;2.1;;;1.2;;
27357;SDS011;14831;50.474;7.616;2023-09-19T14:40:59;2.1;;;1.2;;
27357;SDS011;14831;50.474;7.616;2023-09-19T14:45:58;2.1;;;1.2;;
27357;SDS011;14831;50.474;7.616;2023-09-19T14:51:02;2.1;;;1.2;;
27357;SDS011;14831;50.474;7.616;2023-09-19T14:56:00;2.1;;;1.2;;
27357;SDS011;14831;50.474;7.616;2023-09-19T15:01:06;2.1;;;1.2;;
27357;SDS011;14831;50.474;7.616;2023-09-19T15:05:59;1.6;;;1.1;;
27357;SDS011;14831;50.474;7.616;2023-09-19T15:10:57;1.6;;;1.1;;
27357;SDS011;14831;50.474;7.616;2023-09-19T15:15:59;1.6;;;1.1;;
27357;SDS011;14831;50.474;7.616;2023-09-19T15:21:00;1.6;;;1.1;;
27357;SDS011;14831;50.474;7.616;2023-09-19T15:25:57;1.6;;;1.1;;
27357;SDS011;14831;50.474;7.616;2023-09-19T15:30:59;1.6;;;1.1;;
27357;SDS011;14831;50.474;7.616;2023-09-19T15:36:02;1.5;;;1.1;;
27357;SDS011;14831;50.474;7.616;2023-09-19T15:40:58;1.5;;;1.1;;
27357;SDS011;14831;50.474;7.616;2023-09-19T15:46:00;1.5;;;1.1;;
27357;SDS011;14831;50.474;7.616;2023-09-19T15:51:02;1.5;;;1.1;;
27357;SDS011;14831;50.474;7.616;2023-09-19T15:56:05;1.5;;;1.1;;
27357;SDS011;14831;50.474;7.616;2023-09-19T16:00:57;1.5;;;1.1;;
27357;SDS011;14831;50.474;7.616;2023-09-19T16:05:58;1.7;;;0.9;;
27357;SDS011;14831;50.474;7.616;2023-09-19T16:10:57;1.7;;;0.9;;
27357;SDS011;14831;50.474;7.616;2023-09-19T16:15:58;1.7;;;0.9;;
27357;SDS011;14831;50.474;7.616;2023-09-19T16:21:01;1.7;;;0.9;;
27357;SDS011;14831;50.474;7.616;2023-09-19T16:26:02;1.7;;;0.9;;
27357;SDS011;14831;50.474;7.616;2023-09-19T16:30:58;1.7;;;0.9;;
27357;SDS011;14831;50.474;7.616;2023-09-19T16:35:58;2.7;;;1.1;;
27357;SDS011;14831;50.474;7.616;2023-09-19T16:40:58;2.7;;;1.1;;
27357;SDS011;14831;50.474;7.616;2023-09-19T16:45:59;2.7;;;1.1;;
27357;SDS011;14831;50.474;7.616;2023-09-19T16:51:00;2.7;;;1.1;;
27357;SDS011;14831;50.474;7.616;2023-09-19T16:56:01;2.7;;;1.1;;
27357;SDS011;14831;50.474;7.616;2023-09-19T17:00:58;2.7;;;1.1;;
27357;SDS011;14831;50.474;7.616;2023-09-19T17:05:58;4.4;;;1.4;;
27357;SDS011;14831;50.474;7.616;2023-09-19T17:11:02;4.4;;;1.4;;
27357;SDS011;14831;50.474;7.616;2023-09-19T17:16:00;4.4;;;1.4;;
27357;SDS011;14831;50.474;7.616;2023-09-19T17:20:58;4.4;;;1.4;;
27357;SDS011;14831;50.474;7.616;2023-09-19T17:25:59;4.4;;;1.4;;
27357;SDS011;14831;50.474;7.616;2023-09-19T17:30:58;4.4;;;1.4;;
27357;SDS011;14831;50.474;7.616;2023-09-19T17:36:06;2.0;;;1.1;;
27357;SDS011;14831;50.474;7.616;2023-09-19T17:41:01;2.0;;;1.1;;
27357;SDS011;14831;50.474;7.616;2023-09-19T17:46:05;2.0;;;1.1;;
27357;SDS011;14831;50.474;7.616;2023-09-19T17:51:00;2.0;;;1.1;;
27357;SDS011;14831;50.474;7.616;2023-09-19T17:55:59;2.0;;;1.1;;
27357;SDS011;14831;50.474;7.616;2023-09-19T18:01:06;2.0;;;1.1;;
27357;SDS011;14831;50.474;7.616;2023-09-19T18:05:57;3.1;;;1.3;;
27357;SDS011;14831;50.474;7.616;2023-09-19T18:10:58;3.1;;;1.3;;
27357;SDS011;14831;50.474;7.616;2023-09-19T18:15:57;3.1;;;1.3;;
27357;SDS011;14831;50.474;7.616;2023-09-19T18:21:00;3.1;;;1.3;;
27357;SDS011;14831;50.474;7.616;2023-09-19T18:25:58;3.1;;;1.3;;
27357;SDS011;14831;50.474;7.616;2023-09-19T18:30:57;3.1;;;1.3;;
27357;SDS011;14831;50.474;7.616;2023-09-19T18:36:00;3.8;;;1.5;;
27357;SDS011;14831;50.474;7.616;2023-09-19T18:40:58;3.8;;;1.5;;
27357;SDS011;14831;50.474;7.616;2023-09-19T18:45:57;3.8;;;1.5;;
27357;SDS011;14831;50.474;7.616;2023-09-19T18:51:03;3.8;;;1.5;;
27357;SDS011;14831;50.474;7.616;2023-09-19T18:56:02;3.8;;;1.5;;
27357;SDS011;14831;50.474;7.616;2023-09-19T19:01:01;3.8;;;1.5;;
27357;SDS011;14831;50.474;7.616;2023-09-19T19:05:58;3.8;;;1.5;;
27357;SDS011;14831;50.474;7.616;2023-09-19T19:10:58;3.8;;;1.5;;
27357;SDS011;14831;50.474;7.616;2023-09-19T19:15:58;3.8;;;1.5;;
27357;SDS011;14831;50.474;7.616;2023-09-19T19:20:58;3.8;;;1.5;;
27357;SDS011;14831;50.474;7.616;2023-09-19T19:25:58;3.8;;;1.5;;
27357;SDS011;14831;50.474;7.616;2023-09-19T19:30:58;3.8;;;1.5;;
27357;SDS011;14831;50.474;7.616;2023-09-19T19:36:03;3.2;;;1.4;;
27357;SDS011;14831;50.474;7.616;2023-09-19T19:40:58;3.2;;;1.4;;
27357;SDS011;14831;50.474;7.616;2023-09-19T19:45:59;3.2;;;1.4;;
27357;SDS011;14831;50.474;7.616;2023-09-19T19:50:58;3.2;;;1.4;;
27357;SDS011;14831;50.474;7.616;2023-09-19T19:55:58;3.2;;;1.4;;
27357;SDS011;14831;50.474;7.616;2023-09-19T20:00:58;3.2;;;1.4;;
27357;SDS011;14831;50.474;7.616;2023-09-19T20:05:59;2.0;;;1.3;;
27357;SDS011;14831;50.474;7.616;2023-09-19T20:11:01;2.0;;;1.3;;
27357;SDS011;14831;50.474;7.616;2023-09-19T20:15:58;2.0;;;1.3;;
27357;SDS011;14831;50.474;7.616;2023-09-19T20:21:03;2.0;;;1.3;;
27357;SDS011;14831;50.474;7.616;2023-09-19T20:26:01;2.0;;;1.3;;
27357;SDS011;14831;50.474;7.616;2023-09-19T20:30:57;2.0;;;1.3;;
27357;SDS011;14831;50.474;7.616;2023-09-19T20:35:58;1.9;;;1.1;;
27357;SDS011;14831;50.474;7.616;2023-09-19T20:40:57;1.9;;;1.1;;
27357;SDS011;14831;50.474;7.616;2023-09-19T20:46:01;1.9;;;1.1;;
27357;SDS011;14831;50.474;7.616;2023-09-19T20:51:04;1.9;;;1.1;;
27357;SDS011;14831;50.474;7.616;2023-09-19T20:55:59;1.9;;;1.1;;
27357;SDS011;14831;50.474;7.616;2023-09-19T21:01:00;1.9;;;1.1;;
27357;SDS011;14831;50.474;7.616;2023-09-19T21:06:00;1.3;;;1.1;;
27357;SDS011;14831;50.474;7.616;2023-09-19T21:10:58;1.3;;;1.1;;
27357;SDS011;14831;50.474;7.616;2023-09-19T21:16:00;1.3;;;1.1;;
27357;SDS011;14831;50.474;7.616;2023-09-19T21:21:01;1.3;;;1.1;;
27357;SDS011;14831;50.474;7.616;2023-09-19T21:25:57;1.3;;;1.1;;
27357;SDS011;14831;50.474;7.616;2023-09-19T21:30:58;1.3;;;1.1;;
27357;SDS011;14831;50.474;7.616;2023-09-19T21:35:58;1.3;;;1.1;;
27357;SDS011;14831;50.474;7.616;2023-09-19T21:41:06;1.3;;;1.1;;
27357;SDS011;14831;50.474;7.616;2023-09-19T21:45:57;1.3;;;1.1;;
27357;SDS011;14831;50.474;7.616;2023-09-19T21:50:58;1.3;;;1.1;;
27357;SDS011;14831;50.474;7.616;2023-09-19T21:55:58;1.3;;;1.1;;
27357;SDS011;14831;50.474;7.616;2023-09-19T22:00:58;1.3;;;1.1;;
27357;SDS011;14831;50.474;7.616;2023-09-19T22:06:02;1.2;;;0.9;;
27357;SDS011;14831;50.474;7.616;2023-09-19T22:10:58;1.2;;;0.9;;
27357;SDS011;14831;50.474;7.616;2023-09-19T22:15:59;1.2;;;0.9;;
27357;SDS011;14831;50.474;7.616;2023-09-19T22:20:58;1.2;;;0.9;;
27357;SDS011;14831;50.474;7.616;2023-09-19T22:25:58;1.2;;;0.9;;
27357;SDS011;14831;50.474;7.616;2023-09-19T22:30:58;1.2;;;0.9;;
27357;SDS011;14831;50.474;7.616;2023-09-19T22:35:58;1.1;;;0.9;;
27357;SDS011;14831;50.474;7.616;2023-09-19T22:40:57;1.1;;;0.9;;
27357;SDS011;14831;50.474;7.616;2023-09-19T22:45:58;1.1;;;0.9;;
27357;SDS011;14831;50.474;7.616;2023-09-19T22:50:57;1.1;;;0.9;;
27357;SDS011;14831;50.474;7.616;2023-09-19T22:55:57;1.1;;;0.9;;
27357;SDS011;14831;50.474;7.616;2023-09-19T23:01:06;1.1;;;0.9;;
27357;SDS011;14831;50.474;7.616;2023-09-19T23:05:58;2.1;;;0.9;;
27357;SDS011;14831;50.474;7.616;2023-09-19T23:11:01;2.1;;;0.9;;
27357;SDS011;14831;50.474;7.616;2023-09-19T23:16:01;2.1;;;0.9;;
27357;SDS011;14831;50.474;7.616;2023-09-19T23:20:57;2.1;;;0.9;;
27357;SDS011;14831;50.474;7.616;2023-09-19T23:25:57;2.1;;;0.9;;
27357;SDS011;14831;50.474;7.616;2023-09-19T23:30:58;2.1;;;0.9;;
27357;SDS011;14831;50.474;7.616;2023-09-19T23:35:58;1.2;;;0.8;;
27357;SDS011;14831;50.474;7.616;2023-09-19T23:40:58;1.2;;;0.8;;
27357;SDS011;14831;50.474;7.616;2023-09-19T23:45:58;1.2;;;0.8;;
27357;SDS011;14831;50.474;7.616;2023-09-19T23:50:58;1.2;;;0.8;;
27357;SDS011;14831;50.474;7.616;2023-09-19T23:55:58;1.2;;;0.8;;
